Time;durP1;ratioP1;P1;durP2;ratioP2;P2;SDS_P1;SDS_P2;PMS_P1;PMS_P2;Temp;Humidity;BMP_temperature;BMP_pressure;BME280_temperature;BME280_humidity;BME280_pressure;Samples;Min_cycle;Max_cycle;Signal;HPM_P1;HPM_P2
2022/03/25 00:01:09;;;;;;;39.83;19.23;;;;;;;6.61;76.52;103059.91;5062899;28;20039;-70
2022/03/25 00:03:34;;;;;;;39.15;19.45;;;;;;;6.58;77.17;103064.28;5012652;28;20107;-70
2022/03/25 00:05:59;;;;;;;37.95;18.98;;;;;;;6.56;76.90;103062.50;5062042;28;20119;-70
2022/03/25 00:08:26;;;;;;;37.97;19.17;;;;;;;6.55;76.96;103063.38;5028007;28;20040;-70
2022/03/25 00:10:51;;;;;;;40.30;19.27;;;;;;;6.54;77.42;103056.34;5044255;28;20369;-70
2022/03/25 00:13:17;;;;;;;38.08;19.45;;;;;;;6.52;77.16;103067.72;5062883;28;20032;-70
2022/03/25 00:15:42;;;;;;;39.75;19.83;;;;;;;6.50;76.32;103062.44;5044166;28;20046;-70
2022/03/25 00:18:08;;;;;;;42.33;20.40;;;;;;;6.50;75.72;103054.56;5062334;28;20028;-70
2022/03/25 00:20:34;;;;;;;43.05;21.00;;;;;;;6.46;76.04;103068.56;5032675;28;20119;-70
2022/03/25 00:23:02;;;;;;;36.22;19.75;;;;;;;6.43;76.50;103060.63;5069263;28;20213;-70
2022/03/25 00:25:28;;;;;;;38.70;19.98;;;;;;;6.40;76.74;103069.38;5064043;28;20052;-70
2022/03/25 00:27:54;;;;;;;38.35;20.15;;;;;;;6.34;76.98;103068.44;5025115;28;20487;-70
2022/03/25 00:30:19;;;;;;;36.33;19.67;;;;;;;6.32;76.78;103057.06;5067202;28;20032;-70
2022/03/25 00:32:45;;;;;;;40.92;19.35;;;;;;;6.30;76.98;103061.41;5044260;28;20102;-71
2022/03/25 00:35:10;;;;;;;42.42;21.77;;;;;;;6.27;77.72;103070.16;5047316;28;20028;-71
2022/03/25 00:37:36;;;;;;;44.22;20.58;;;;;;;6.23;77.32;103063.97;5065754;28;20036;-71
2022/03/25 00:40:02;;;;;;;43.83;21.42;;;;;;;6.26;76.98;103064.88;5064971;28;20020;-70
2022/03/25 00:42:28;;;;;;;41.42;21.50;;;;;;;6.23;75.64;103057.84;5066226;28;20090;-70
2022/03/25 00:44:55;;;;;;;42.92;20.77;;;;;;;6.28;75.21;103063.13;5064669;28;20032;-71
2022/03/25 00:47:21;;;;;;;47.15;21.58;;;;;;;6.28;75.80;103052.59;5065624;28;20078;-70
2022/03/25 00:49:46;;;;;;;44.75;21.58;;;;;;;6.28;75.37;103065.75;5065081;28;20423;-70
2022/03/25 00:52:12;;;;;;;44.75;22.85;;;;;;;6.25;75.74;103065.75;5044524;28;20032;-70
2022/03/25 00:54:37;;;;;;;44.22;21.48;;;;;;;6.25;75.54;103060.47;5047077;28;20032;-70
2022/03/25 00:57:03;;;;;;;42.40;21.25;;;;;;;6.22;76.06;103063.97;5064058;28;20025;-70
2022/03/25 00:59:29;;;;;;;41.72;21.70;;;;;;;6.17;76.82;103063.03;5043167;28;20036;-71
2022/03/25 01:01:55;;;;;;;42.97;21.98;;;;;;;6.09;77.32;103057.72;5065178;28;20036;-70
2022/03/25 01:04:20;;;;;;;46.78;22.88;;;;;;;6.02;78.32;103062.03;5043549;28;20089;-71
2022/03/25 01:06:46;;;;;;;45.50;21.35;;;;;;;6.01;78.91;103056.75;5064268;28;20036;-70
2022/03/25 01:09:11;;;;;;;43.88;22.55;;;;;;;6.01;78.85;103062.91;5064472;28;20033;-70
2022/03/25 01:11:37;;;;;;;44.45;23.38;;;;;;;5.98;78.68;103057.59;5047877;28;20036;-71
2022/03/25 01:14:03;;;;;;;43.70;22.67;;;;;;;5.96;78.78;103068.94;5044297;28;20028;-70
2022/03/25 01:16:28;;;;;;;46.72;24.73;;;;;;;5.95;78.34;103068.06;5064899;28;20541;-70
2022/03/25 01:18:54;;;;;;;47.75;25.02;;;;;;;5.97;79.04;103065.44;5064291;28;20062;-70
2022/03/25 01:21:19;;;;;;;48.42;25.88;;;;;;;6.02;77.49;103059.41;5064625;28;20036;-71
2022/03/25 01:23:45;;;;;;;46.65;24.20;;;;;;;5.97;78.04;103055.81;5064196;28;20071;-70
2022/03/25 01:26:12;;;;;;;45.25;24.75;;;;;;;5.92;78.72;103068.03;5063843;28;20013;-70
2022/03/25 01:28:37;;;;;;;45.80;23.70;;;;;;;5.86;78.88;103062.72;5046621;28;20043;-70
2022/03/25 01:31:06;;;;;;;47.40;24.95;;;;;;;5.81;79.12;103067.03;5064462;28;20032;-71
2022/03/25 01:33:31;;;;;;;50.47;24.10;;;;;;;5.76;80.24;103074.00;5065259;28;20025;-71
2022/03/25 01:35:57;;;;;;;50.92;25.52;;;;;;;5.72;80.32;103062.56;5063829;28;20032;-71
2022/03/25 01:38:25;;;;;;;47.33;24.88;;;;;;;5.65;80.73;103063.34;5064224;28;20028;-71
2022/03/25 01:40:51;;;;;;;49.05;25.73;;;;;;;5.57;81.45;103053.59;5065551;28;20035;-70
2022/03/25 01:43:17;;;;;;;50.95;26.17;;;;;;;5.51;82.46;103061.44;5064163;28;20822;-71
2022/03/25 01:45:42;;;;;;;53.10;27.05;;;;;;;5.50;82.30;103051.78;5063845;28;20056;-72
2022/03/25 01:48:12;;;;;;;49.95;26.05;;;;;;;5.51;82.92;103055.28;5063859;28;20043;-70
2022/03/25 01:50:40;;;;;;;52.28;26.17;;;;;;;5.50;82.68;103061.41;5063744;28;20048;-71
2022/03/25 01:53:26;;;;;;;52.85;26.10;;;;;;;5.46;83.18;103055.25;5047964;28;20024;-70
2022/03/25 01:55:57;;;;;;;55.13;26.05;;;;;;;5.44;82.94;103058.72;5065677;28;20434;-70
2022/03/25 01:58:24;;;;;;;53.90;27.63;;;;;;;5.43;83.24;103059.59;5063385;28;20043;-70
2022/03/25 02:00:50;;;;;;;56.30;27.58;;;;;;;5.42;82.99;103061.31;5063521;28;20017;-70
2022/03/25 02:03:16;;;;;;;53.03;27.13;;;;;;;5.40;83.40;103063.06;5064162;28;20552;-71
2022/03/25 02:05:45;;;;;;;57.55;28.45;;;;;;;5.35;83.70;103062.97;5063775;28;20483;-71
2022/03/25 02:08:11;;;;;;;55.33;27.75;;;;;;;5.31;84.53;103063.81;5062398;28;20032;-70
2022/03/25 02:10:38;;;;;;;57.20;28.90;;;;;;;5.28;84.71;103066.41;5064023;28;20075;-70
2022/03/25 02:13:04;;;;;;;58.20;28.88;;;;;;;5.29;84.71;103062.91;5045804;28;20032;-71
2022/03/25 02:15:34;;;;;;;61.40;29.92;;;;;;;5.30;84.80;103061.19;5042614;28;20085;-71
2022/03/25 02:18:10;;;;;;;61.28;29.95;;;;;;;5.30;85.56;103054.16;5038061;28;20112;-71
2022/03/25 02:20:37;;;;;;;62.35;30.73;;;;;;;5.29;84.88;103056.78;5035702;28;20119;-71
2022/03/25 02:23:04;;;;;;;59.70;30.52;;;;;;;5.27;85.04;103061.13;5052271;28;20036;-71
2022/03/25 02:25:30;;;;;;;58.85;29.30;;;;;;;5.24;84.89;103057.59;5051242;28;20599;-71
2022/03/25 02:27:58;;;;;;;54.95;27.98;;;;;;;5.23;85.11;103057.56;5038662;28;20029;-71
2022/03/25 02:30:23;;;;;;;62.28;29.20;;;;;;;5.15;84.91;103059.22;5051921;28;20036;-71
2022/03/25 02:32:48;;;;;;;62.42;29.90;;;;;;;5.08;85.94;103064.38;5051344;28;20460;-70
2022/03/25 02:35:14;;;;;;;63.50;31.33;;;;;;;5.05;86.12;103060.81;5036989;28;20737;-70
2022/03/25 02:37:39;;;;;;;59.28;29.60;;;;;;;5.03;87.12;103065.19;5037196;28;20107;-71
2022/03/25 02:40:05;;;;;;;62.88;30.23;;;;;;;5.01;87.28;103059.03;5049625;28;20588;-70
2022/03/25 02:42:30;;;;;;;63.65;30.60;;;;;;;4.98;87.95;103059.88;5051534;28;20047;-70
2022/03/25 02:44:56;;;;;;;65.47;32.70;;;;;;;4.97;87.56;103055.47;5064393;28;20024;-70
2022/03/25 02:47:21;;;;;;;64.45;31.88;;;;;;;4.96;87.53;103058.94;5062638;28;20098;-70
2022/03/25 02:49:47;;;;;;;68.78;33.03;;;;;;;4.93;87.46;103065.03;5062704;28;20488;-70
2022/03/25 02:52:12;;;;;;;66.57;31.60;;;;;;;4.93;87.92;103058.91;5046556;28;20043;-70
2022/03/25 02:54:38;;;;;;;64.72;31.33;;;;;;;4.88;88.50;103056.22;5063023;28;20036;-70
2022/03/25 02:57:04;;;;;;;70.53;33.30;;;;;;;4.85;88.28;103053.56;5046336;28;20040;-71
2022/03/25 02:59:29;;;;;;;70.00;33.88;;;;;;;4.83;88.75;103059.63;5028698;28;20583;-69
2022/03/25 03:01:55;;;;;;;72.97;33.25;;;;;;;4.81;88.79;103064.88;5021275;28;20040;-71
2022/03/25 03:04:20;;;;;;;72.55;33.83;;;;;;;4.74;89.72;103063.00;5062336;28;20036;-70
2022/03/25 03:06:45;;;;;;;72.05;34.00;;;;;;;4.69;89.82;103062.94;5011831;28;20039;-70
2022/03/25 03:09:11;;;;;;;71.10;34.22;;;;;;;4.66;90.83;103062.88;5062214;28;20143;-70
2022/03/25 03:11:37;;;;;;;72.30;33.97;;;;;;;4.64;90.61;103055.84;5043852;28;20430;-72
2022/03/25 03:14:03;;;;;;;69.30;34.90;;;;;;;4.63;90.79;103062.84;5062247;28;20024;-70
2022/03/25 03:16:28;;;;;;;80.60;37.47;;;;;;;4.62;91.56;103060.19;5063024;28;20130;-71
2022/03/25 03:18:54;;;;;;;78.07;37.15;;;;;;;4.63;91.66;103056.69;5063077;28;20036;-70
2022/03/25 03:21:23;;;;;;;77.97;37.47;;;;;;;4.64;91.40;103068.97;5067368;28;20032;-70
2022/03/25 03:23:52;;;;;;;75.57;36.15;;;;;;;4.61;91.45;103061.06;5030128;28;20082;-70
2022/03/25 03:26:18;;;;;;;72.75;34.78;;;;;;;4.57;91.88;103061.00;5062396;28;20050;-70
2022/03/25 03:28:44;;;;;;;77.43;37.15;;;;;;;4.54;91.90;103060.06;5063466;28;20024;-71
2022/03/25 03:31:10;;;;;;;79.53;37.47;;;;;;;4.51;92.36;103057.41;5041239;28;20033;-71
2022/03/25 03:33:35;;;;;;;81.68;37.97;;;;;;;4.49;92.13;103054.75;5062952;28;20490;-70
2022/03/25 03:36:01;;;;;;;76.55;36.35;;;;;;;4.48;92.61;103050.34;5042700;28;20059;-71
2022/03/25 03:38:26;;;;;;;82.13;38.20;;;;;;;4.47;92.33;103058.22;5066088;28;20032;-71
2022/03/25 03:40:52;;;;;;;81.40;38.17;;;;;;;4.46;92.65;103049.44;5027400;28;20510;-71
2022/03/25 03:43:17;;;;;;;81.18;38.70;;;;;;;4.43;92.67;103058.13;5062284;28;20568;-70
2022/03/25 03:45:42;;;;;;;85.68;39.25;;;;;;;4.39;92.97;103055.47;5061403;28;20044;-70
2022/03/25 03:48:08;;;;;;;76.63;37.50;;;;;;;4.35;92.90;103049.28;5062494;28;20040;-71
2022/03/25 03:50:34;;;;;;;82.47;36.60;;;;;;;4.33;92.77;103058.84;5041928;28;20020;-71
2022/03/25 03:52:59;;;;;;;77.50;37.15;;;;;;;4.29;92.96;103057.03;5063322;28;20032;-71
2022/03/25 03:55:25;;;;;;;82.22;39.13;;;;;;;4.25;93.26;103048.22;5044560;28;20036;-71
2022/03/25 03:57:50;;;;;;;81.47;37.15;;;;;;;4.24;93.74;103050.84;5065835;28;20082;-71
2022/03/25 04:00:15;;;;;;;85.28;39.15;;;;;;;4.21;93.05;103056.03;5046802;28;20470;-71
2022/03/25 04:02:42;;;;;;;75.55;36.70;;;;;;;4.16;93.02;103055.06;5066056;28;20418;-71
2022/03/25 04:05:07;;;;;;;80.97;38.60;;;;;;;4.10;93.42;103042.72;5066253;28;20052;-71
2022/03/25 04:07:42;;;;;;;82.28;37.58;;;;;;;4.07;93.97;103056.66;5045057;28;20036;-71
2022/03/25 04:10:09;;;;;;;81.20;37.90;;;;;;;4.04;94.21;103056.63;5065804;28;20033;-71
2022/03/25 04:12:34;;;;;;;85.68;39.45;;;;;;;4.00;94.66;103061.75;5045251;28;20036;-71
2022/03/25 04:14:59;;;;;;;86.57;40.38;;;;;;;3.96;95.24;103066.06;5067883;28;20033;-72
2022/03/25 04:17:25;;;;;;;88.50;41.08;;;;;;;3.94;96.04;103063.41;5065367;28;20040;-72
2022/03/25 04:19:51;;;;;;;91.22;41.28;;;;;;;3.94;96.20;103068.66;5044330;28;20680;-71
2022/03/25 04:22:17;;;;;;;92.43;40.45;;;;;;;3.93;96.28;103072.13;5049241;28;20032;-71
2022/03/25 04:24:43;;;;;;;92.50;41.05;;;;;;;3.91;96.75;103062.47;5032611;28;20028;-71
2022/03/25 04:27:09;;;;;;;91.43;41.58;;;;;;;3.86;97.08;103070.28;5065139;28;20028;-70
2022/03/25 04:29:34;;;;;;;91.55;41.55;;;;;;;3.86;96.92;103072.88;5032430;28;20039;-71
2022/03/25 04:32:00;;;;;;;89.68;41.20;;;;;;;3.84;97.62;103078.97;5066547;28;20036;-71
2022/03/25 04:34:25;;;;;;;96.50;42.47;;;;;;;3.81;97.91;103063.16;5064931;28;20434;-71
2022/03/25 04:36:51;;;;;;;101.05;44.38;;;;;;;3.81;98.53;103064.06;5066960;28;20032;-71
2022/03/25 04:39:16;;;;;;;112.70;44.60;;;;;;;3.83;98.30;103067.56;5064752;28;20150;-71
2022/03/25 04:41:41;;;;;;;100.07;45.67;;;;;;;3.88;98.60;103059.81;5047585;28;20117;-71
2022/03/25 04:44:07;;;;;;;95.82;44.58;;;;;;;3.88;99.17;103063.28;5049052;28;20454;-71
2022/03/25 04:46:35;;;;;;;100.28;45.50;;;;;;;3.89;98.75;103066.81;5043991;28;20418;-71
2022/03/25 04:49:00;;;;;;;96.75;44.97;;;;;;;3.86;97.61;103067.66;5034658;28;20028;-71
2022/03/25 04:51:26;;;;;;;94.07;42.53;;;;;;;3.83;97.32;103075.44;5064604;28;20044;-71
2022/03/25 04:53:51;;;;;;;96.35;44.78;;;;;;;3.78;97.32;103069.22;5065328;28;20108;-72
2022/03/25 04:56:18;;;;;;;106.32;45.53;;;;;;;3.78;98.08;103077.09;5043891;28;20047;-72
2022/03/25 04:58:44;;;;;;;102.90;44.70;;;;;;;3.80;98.24;103070.16;5064667;28;20042;-72
2022/03/25 05:01:09;;;;;;;90.88;43.20;;;;;;;3.82;97.39;103068.41;5047090;28;20089;-71
2022/03/25 05:03:35;;;;;;;97.30;43.85;;;;;;;3.79;97.41;103068.38;5065223;28;20032;-72
2022/03/25 05:06:00;;;;;;;97.30;43.53;;;;;;;3.75;96.88;103075.28;5046164;28;20033;-72
2022/03/25 05:08:26;;;;;;;90.10;42.60;;;;;;;3.72;97.09;103067.38;5064620;28;20033;-72
2022/03/25 05:10:52;;;;;;;100.07;44.05;;;;;;;3.70;97.35;103076.06;5063582;28;20017;-71
2022/03/25 05:13:17;;;;;;;101.15;44.03;;;;;;;3.66;97.94;103082.06;5043538;28;20031;-72
2022/03/25 05:15:43;;;;;;;96.97;44.00;;;;;;;3.66;98.01;103082.06;5030399;28;20126;-72
2022/03/25 05:18:09;;;;;;;103.18;43.95;;;;;;;3.67;98.45;103078.59;5066194;28;20028;-72
2022/03/25 05:20:35;;;;;;;97.00;42.85;;;;;;;3.69;98.89;103087.38;5065253;28;20032;-71
2022/03/25 05:23:00;;;;;;;99.00;44.70;;;;;;;3.66;98.98;103080.34;5064847;28;20087;-72
2022/03/25 05:25:25;;;;;;;100.30;43.85;;;;;;;3.66;98.73;103087.31;5048062;28;20040;-72
2022/03/25 05:27:52;;;;;;;99.70;46.10;;;;;;;3.65;99.34;103080.34;5066275;28;20597;-71
2022/03/25 05:30:24;;;;;;;100.22;44.63;;;;;;;3.64;100.00;103081.19;5063592;28;20024;-72
2022/03/25 05:32:50;;;;;;;106.22;46.30;;;;;;;3.63;99.94;103079.41;5066095;28;20357;-72
2022/03/25 05:35:16;;;;;;;101.20;44.42;;;;;;;3.64;100.00;103084.66;5069301;28;20399;-72
2022/03/25 05:37:42;;;;;;;101.15;45.25;;;;;;;3.64;100.00;103092.53;5063516;28;20029;-72
2022/03/25 05:40:09;;;;;;;104.25;45.88;;;;;;;3.69;100.00;103090.88;5064178;28;20024;-72
2022/03/25 05:42:35;;;;;;;104.55;46.95;;;;;;;3.75;100.00;103098.00;5043250;28;20024;-70
2022/03/25 05:45:03;;;;;;;110.78;46.45;;;;;;;3.78;100.00;103092.81;5064652;28;20032;-72
2022/03/25 05:47:28;;;;;;;110.32;47.20;;;;;;;3.83;100.00;103101.66;5063747;28;20060;-72
2022/03/25 05:49:54;;;;;;;107.03;47.50;;;;;;;3.84;100.00;103094.69;5045040;28;20021;-71
2022/03/25 05:52:19;;;;;;;102.97;46.25;;;;;;;3.84;100.00;103095.56;5062701;28;20060;-73
2022/03/25 05:54:45;;;;;;;101.32;47.78;;;;;;;3.88;100.00;103097.38;5062772;28;20050;-72
2022/03/25 05:57:10;;;;;;;108.95;48.53;;;;;;;3.92;100.00;103091.31;5044939;28;20109;-72
2022/03/25 05:59:36;;;;;;;99.65;47.00;;;;;;;3.96;100.00;103096.66;5063957;28;20028;-72
2022/03/25 06:02:01;;;;;;;107.13;45.10;;;;;;;3.99;100.00;103096.69;5063802;28;20032;-71
2022/03/25 06:04:27;;;;;;;117.28;48.53;;;;;;;4.01;100.00;103092.38;5045431;28;20032;-71
2022/03/25 06:06:53;;;;;;;105.13;47.45;;;;;;;4.08;100.00;103099.50;5064071;28;20072;-71
2022/03/25 06:09:19;;;;;;;107.15;48.05;;;;;;;4.13;100.00;103091.72;5044759;28;20767;-71
2022/03/25 06:11:44;;;;;;;107.20;47.67;;;;;;;4.19;100.00;103100.56;5063427;28;20032;-72
2022/03/25 06:14:10;;;;;;;99.25;45.42;;;;;;;4.21;100.00;103105.88;5028801;28;20040;-71
2022/03/25 06:16:35;;;;;;;103.07;45.35;;;;;;;4.22;99.75;103102.38;5044826;28;20721;-72
2022/03/25 06:19:01;;;;;;;101.78;46.65;;;;;;;4.25;99.88;103111.19;5042787;28;20032;-73
2022/03/25 06:21:26;;;;;;;117.13;50.17;;;;;;;4.32;100.00;103109.53;5041106;28;20559;-72
2022/03/25 06:23:52;;;;;;;98.85;47.80;;;;;;;4.41;100.00;103111.44;5057849;28;20130;-72
2022/03/25 06:26:18;;;;;;;106.45;49.28;;;;;;;4.46;100.00;103114.16;5024425;28;20032;-72
2022/03/25 06:28:43;;;;;;;110.22;49.55;;;;;;;4.53;100.00;103111.66;5062332;28;20424;-71
2022/03/25 06:31:08;;;;;;;115.35;50.50;;;;;;;4.59;100.00;103116.13;5063279;28;20037;-72
2022/03/25 06:33:35;;;;;;;110.65;49.83;;;;;;;4.67;100.00;103119.78;5062614;28;20515;-71
2022/03/25 06:36:01;;;;;;;126.40;52.08;;;;;;;4.74;100.00;103126.91;5028783;28;20668;-72
2022/03/25 06:38:26;;;;;;;114.82;51.85;;;;;;;4.83;100.00;103123.50;5042142;28;20485;-72
2022/03/25 06:40:51;;;;;;;112.47;49.92;;;;;;;4.90;100.00;103116.66;5045338;28;20027;-72
2022/03/25 06:43:17;;;;;;;120.25;52.85;;;;;;;4.96;100.00;103126.34;5045483;28;20122;-72
2022/03/25 06:45:42;;;;;;;121.88;53.33;;;;;;;5.03;100.00;103133.47;5044772;28;20040;-72
2022/03/25 06:48:08;;;;;;;115.82;52.03;;;;;;;5.13;100.00;103134.47;5061951;28;20048;-72
2022/03/25 06:50:33;;;;;;;115.43;52.97;;;;;;;5.23;100.00;103136.38;5041735;28;20484;-73
2022/03/25 06:53:01;;;;;;;118.78;53.92;;;;;;;5.33;100.00;103142.66;5041291;28;20475;-73
2022/03/25 06:55:27;;;;;;;117.72;53.80;;;;;;;5.41;100.00;103133.16;5046681;28;20036;-72
2022/03/25 06:57:53;;;;;;;110.03;52.67;;;;;;;5.52;100.00;103141.16;5058514;28;20024;-72
2022/03/25 07:00:21;;;;;;;112.30;51.75;;;;;;;5.60;99.92;103136.00;5040238;28;20499;-72
2022/03/25 07:02:47;;;;;;;114.35;54.20;;;;;;;5.69;100.00;103134.38;5041891;28;20036;-72
2022/03/25 07:05:13;;;;;;;113.47;52.03;;;;;;;5.78;99.99;103144.13;5062555;28;20024;-72
2022/03/25 07:07:41;;;;;;;111.03;51.70;;;;;;;5.88;100.00;103148.63;5062305;28;20185;-73
2022/03/25 07:10:09;;;;;;;113.72;53.88;;;;;;;5.97;99.13;103150.50;5068697;28;20032;-73
2022/03/25 07:12:39;;;;;;;112.60;52.40;;;;;;;6.11;98.83;103148.03;5068052;28;20021;-73
2022/03/25 07:15:05;;;;;;;105.47;50.05;;;;;;;6.21;97.53;103149.03;5050380;28;20025;-72
2022/03/25 07:17:31;;;;;;;105.32;50.97;;;;;;;6.28;97.55;103148.22;5061312;28;20479;-72
2022/03/25 07:19:56;;;;;;;99.03;49.53;;;;;;;6.36;96.84;103145.69;5049102;28;20032;-73
2022/03/25 07:22:22;;;;;;;103.05;50.28;;;;;;;6.45;96.69;103156.28;5069453;28;20033;-72
2022/03/25 07:24:47;;;;;;;96.57;48.10;;;;;;;6.57;96.32;103150.25;5062539;28;20033;-73
2022/03/25 07:27:12;;;;;;;99.97;49.67;;;;;;;6.68;95.02;103153.88;5063436;28;20028;-73
2022/03/25 07:29:38;;;;;;;98.63;49.78;;;;;;;6.70;94.24;103152.13;5069292;28;20032;-73
2022/03/25 07:32:04;;;;;;;90.93;47.90;;;;;;;6.77;94.37;103160.97;5067828;28;20025;-73
2022/03/25 07:34:31;;;;;;;97.53;47.10;;;;;;;6.86;94.56;103155.75;5070848;28;20052;-73
2022/03/25 07:36:56;;;;;;;97.20;47.22;;;;;;;6.96;93.87;103169.03;5073521;28;20123;-73
2022/03/25 07:39:22;;;;;;;97.18;48.42;;;;;;;7.05;93.16;103171.72;5053799;28;20122;-74
2022/03/25 07:41:47;;;;;;;97.70;48.65;;;;;;;7.14;93.06;103171.78;5056663;28;20040;-71
2022/03/25 07:44:12;;;;;;;93.75;46.75;;;;;;;7.21;92.13;103170.97;5070826;28;20035;-72
2022/03/25 07:46:38;;;;;;;92.20;46.65;;;;;;;7.32;92.26;103172.78;5057093;28;20056;-72
2022/03/25 07:49:03;;;;;;;91.10;46.30;;;;;;;7.44;91.91;103178.13;5056202;28;20456;-73
2022/03/25 07:51:29;;;;;;;89.43;46.33;;;;;;;7.52;91.24;103180.81;5073353;28;20036;-73
2022/03/25 07:53:54;;;;;;;95.57;47.90;;;;;;;7.61;91.32;103179.97;5070519;28;20484;-73
2022/03/25 07:56:21;;;;;;;86.15;44.85;;;;;;;7.73;90.33;103187.09;5041118;28;20058;-73
2022/03/25 07:58:46;;;;;;;85.30;45.38;;;;;;;7.85;90.62;103193.28;5062544;28;20043;-72
2022/03/25 08:01:11;;;;;;;85.18;45.88;;;;;;;7.98;89.58;103191.59;5037118;28;20443;-72
2022/03/25 08:03:37;;;;;;;85.25;44.10;;;;;;;8.02;88.39;103184.56;5064716;28;20036;-73
2022/03/25 08:06:03;;;;;;;89.97;45.72;;;;;;;8.08;88.47;103196.88;5069776;28;20028;-71
2022/03/25 08:08:28;;;;;;;88.43;45.67;;;;;;;8.17;87.94;103194.28;5075553;28;20607;-72
2022/03/25 08:10:55;;;;;;;82.78;44.00;;;;;;;8.28;87.20;103196.97;5074668;28;20489;-73
2022/03/25 08:13:24;;;;;;;85.28;43.25;;;;;;;8.34;86.30;103208.41;5056810;28;20032;-73
2022/03/25 08:15:49;;;;;;;82.70;42.35;;;;;;;8.41;85.99;103205.78;5074879;28;20479;-72
2022/03/25 08:18:16;;;;;;;77.13;43.42;;;;;;;8.48;84.80;103208.47;5072367;28;20035;-73
2022/03/25 08:20:47;;;;;;;80.45;42.65;;;;;;;8.58;84.89;103217.31;5069489;28;20020;-73
2022/03/25 08:23:12;;;;;;;79.82;41.92;;;;;;;8.68;84.24;103213.81;5047963;28;20495;-73
2022/03/25 08:28:23;;;;;;;77.10;42.03;;;;;;;8.98;83.48;103211.19;5060109;28;20036;-73
2022/03/25 08:30:49;;;;;;;74.70;41.28;;;;;;;9.23;83.28;103205.88;5035051;28;20028;-72
2022/03/25 08:33:15;;;;;;;71.40;39.92;;;;;;;9.29;81.62;103208.50;5055644;28;20032;-72
2022/03/25 08:35:42;;;;;;;73.57;39.90;;;;;;;9.51;79.81;103209.34;5052842;28;20115;-73
2022/03/25 08:38:09;;;;;;;72.63;39.30;;;;;;;9.68;79.00;103214.59;5056016;28;20112;-72
2022/03/25 08:40:36;;;;;;;69.63;37.78;;;;;;;9.87;78.42;103218.03;5072177;28;20028;-73
2022/03/25 08:43:04;;;;;;;72.05;39.42;;;;;;;9.80;76.45;103224.25;5052956;28;20033;-73
2022/03/25 08:45:30;;;;;;;71.55;40.38;;;;;;;9.87;77.98;103222.47;5071641;28;20028;-73
2022/03/25 08:47:56;;;;;;;74.47;38.55;;;;;;;9.84;76.92;103224.22;5055628;28;20131;-73
2022/03/25 08:50:22;;;;;;;67.20;37.83;;;;;;;9.87;76.34;103220.69;5073690;28;20028;-73
2022/03/25 08:52:49;;;;;;;67.47;37.45;;;;;;;10.03;76.09;103218.00;5061374;28;20028;-73
2022/03/25 08:55:16;;;;;;;64.80;36.10;;;;;;;10.15;73.56;103213.53;5055374;28;20028;-73
2022/03/25 08:57:42;;;;;;;67.10;35.72;;;;;;;10.39;72.30;103211.66;5073095;28;20036;-73
2022/03/25 09:00:11;;;;;;;60.40;34.83;;;;;;;10.45;71.38;103219.56;5069503;28;20035;-72
2022/03/25 09:02:38;;;;;;;58.83;33.97;;;;;;;10.57;71.14;103215.09;5073277;28;20036;-73
2022/03/25 09:05:05;;;;;;;60.10;33.75;;;;;;;10.72;70.32;103222.06;5053052;28;20032;-73
2022/03/25 09:07:30;;;;;;;58.95;32.95;;;;;;;10.78;67.49;103216.69;5055272;28;20127;-72
2022/03/25 09:09:56;;;;;;;57.17;33.17;;;;;;;11.01;68.58;103226.25;5054566;28;20116;-72
2022/03/25 09:12:23;;;;;;;59.22;32.25;;;;;;;11.43;66.01;103227.63;5035572;28;20060;-72
2022/03/25 09:14:48;;;;;;;55.35;32.20;;;;;;;12.35;62.34;103221.25;5035825;28;20468;-72
2022/03/25 09:17:14;;;;;;;57.65;32.95;;;;;;;13.21;60.57;103222.56;5066992;28;20107;-72
2022/03/25 09:19:39;;;;;;;54.65;32.88;;;;;;;14.27;55.64;103232.00;5044007;28;20025;-73
2022/03/25 09:22:05;;;;;;;54.33;33.40;;;;;;;15.34;52.31;103226.81;5053655;28;20430;-72
2022/03/25 09:24:30;;;;;;;55.80;34.85;;;;;;;15.84;48.73;103224.56;5051174;28;20033;-73
2022/03/25 09:26:55;;;;;;;53.03;32.90;;;;;;;16.22;48.22;103230.53;5061811;28;20068;-73
2022/03/25 09:29:21;;;;;;;51.67;33.92;;;;;;;16.12;45.89;103229.06;5069043;28;20495;-72
2022/03/25 09:31:46;;;;;;;53.40;34.80;;;;;;;16.69;44.87;103223.75;5069485;28;20040;-73
2022/03/25 09:36:56;;;;;;;49.65;34.03;;;;;;;17.34;42.49;103230.50;5056963;28;20097;-73
2022/03/25 09:39:22;;;;;;;52.83;33.90;;;;;;;17.60;41.43;103235.84;5055000;28;20114;-73
2022/03/25 09:41:49;;;;;;;49.40;35.03;;;;;;;17.51;41.81;103235.22;5072903;28;20450;-72
2022/03/25 09:44:16;;;;;;;49.53;31.70;;;;;;;17.47;41.09;103236.28;5070943;28;20043;-71
2022/03/25 09:46:42;;;;;;;52.35;34.83;;;;;;;17.45;40.92;103230.09;5072707;28;20056;-72
2022/03/25 09:49:09;;;;;;;50.65;34.47;;;;;;;16.90;41.91;103215.94;5063203;28;20037;-72
2022/03/25 09:51:36;;;;;;;49.47;30.95;;;;;;;17.62;39.53;103226.81;5041549;28;20569;-71
2022/03/25 09:54:02;;;;;;;47.42;29.88;;;;;;;17.60;38.05;103222.47;5063186;28;20154;-72
2022/03/25 09:56:27;;;;;;;41.70;28.55;;;;;;;18.50;35.14;103215.44;5060923;28;20060;-73
2022/03/25 09:58:53;;;;;;;44.38;29.20;;;;;;;18.84;33.83;103226.56;5067115;28;20114;-73
2022/03/25 10:01:18;;;;;;;43.65;30.52;;;;;;;18.27;35.26;103239.59;5061493;28;20024;-73
2022/03/25 10:03:43;;;;;;;45.03;28.55;;;;;;;18.77;34.84;103217.03;5047904;28;20068;-73
2022/03/25 10:06:11;;;;;;;47.08;31.42;;;;;;;19.23;34.62;103224.97;5070715;28;20033;-72
2022/03/25 10:08:38;;;;;;;43.25;29.50;;;;;;;19.32;34.04;103219.19;5050930;28;20036;-73
2022/03/25 10:11:25;;;;;;;41.78;28.25;;;;;;;19.92;32.49;103226.38;5036057;28;20131;-73
2022/03/25 10:14:15;;;;;;;37.28;25.20;;;;;;;20.27;28.59;103226.53;5072309;28;20387;-73
2022/03/25 10:16:42;;;;;;;38.75;25.92;;;;;;;19.33;29.35;103237.06;5050567;28;20499;-73
2022/03/25 10:19:10;;;;;;;37.15;24.27;;;;;;;18.39;29.98;103223.03;5038027;28;20434;-72
2022/03/25 10:21:59;;;;;;;39.45;24.50;;;;;;;18.38;31.17;103218.59;5072331;28;20033;-72
2022/03/25 10:24:52;;;;;;;39.22;25.75;;;;;;;19.66;30.82;103214.97;5071003;28;20368;-71
2022/03/25 10:27:28;;;;;;;38.78;25.98;;;;;;;19.43;30.00;103214.19;5070613;28;20487;-73
2022/03/25 10:29:56;;;;;;;41.47;25.92;;;;;;;18.36;31.42;103216.91;5067157;28;20541;-73
2022/03/25 10:32:26;;;;;;;40.97;25.98;;;;;;;18.32;31.36;103210.78;5021773;28;20035;-73
2022/03/25 10:35:11;;;;;;;40.53;26.98;;;;;;;18.11;31.74;103212.53;5053950;28;20139;-73
2022/03/25 10:37:38;;;;;;;40.65;26.23;;;;;;;18.12;31.38;103209.78;5053053;28;20131;-73
2022/03/25 10:40:07;;;;;;;39.60;24.75;;;;;;;18.20;32.34;103203.22;5042189;28;20036;-72
2022/03/25 10:42:33;;;;;;;40.20;25.92;;;;;;;19.40;30.19;103211.66;5044960;28;20622;-72
2022/03/25 10:45:00;;;;;;;38.80;25.33;;;;;;;19.45;29.71;103209.66;5062627;28;20416;-71
2022/03/25 10:47:28;;;;;;;43.25;26.33;;;;;;;18.65;30.56;103211.22;5054057;28;20196;-71
2022/03/25 10:49:56;;;;;;;39.00;25.00;;;;;;;19.73;29.29;103210.19;5069893;28;20040;-72
2022/03/25 10:52:36;;;;;;;38.65;24.30;;;;;;;19.00;30.39;103210.72;5063371;28;20114;-71
2022/03/25 10:55:13;;;;;;;36.80;23.40;;;;;;;18.86;29.41;103197.84;5051869;28;20116;-72
2022/03/25 10:57:49;;;;;;;36.95;23.73;;;;;;;19.02;29.41;103206.16;5053492;28;20052;-71
2022/03/25 11:00:14;;;;;;;38.47;24.15;;;;;;;19.12;30.17;103212.88;5044891;28;20043;-72
2022/03/25 11:02:41;;;;;;;40.65;23.40;;;;;;;18.73;29.88;103210.03;5052860;28;20025;-72
2022/03/25 11:05:09;;;;;;;37.70;23.48;;;;;;;18.38;30.16;103207.00;5071849;28;20055;-72
2022/03/25 11:07:36;;;;;;;39.05;22.25;;;;;;;19.30;28.40;103194.22;5053042;28;20493;-71
2022/03/25 11:10:02;;;;;;;36.33;23.80;;;;;;;19.12;29.65;103201.28;5066183;28;20024;-71
2022/03/25 11:12:29;;;;;;;33.22;22.30;;;;;;;20.06;29.41;103193.47;5071579;28;20040;-71
2022/03/25 11:14:55;;;;;;;33.83;21.90;;;;;;;20.60;27.39;103193.50;5066606;28;20029;-72